KCBM/CBM METAR and TAF weather

Enter ICAO airport designator
Station Type Date Time Source
KCBM METAR 2021/03/01 09:16 UTC NOAA

KCBM 010916Z AUTO 00000KT 4SM -RA BR OVC038 15/14 A3001 RMK AO2 SLP164 $


Station Type Date Time Source
KCBM Decoded METAR 2021/03/01 09:16 UTC NOAA

Columbus Air Force Base, MS, United States (KCBM) 33-39N 088-27W
Mar 01, 2021 - 04:16 AM EST / 2021.03.01 0916 UTC
Wind: Calm:0
Visibility: 4 mile(s):0
Sky conditions: overcast
Weather: light rain; mist
Temperature: 59 F (15 C)
Dew Point: 57 F (14 C)
Relative Humidity: 93%
Pressure (altimeter): 30.01 in. Hg (1016 hPa)
ob: KCBM 010916Z AUTO 00000KT 4SM -RA BR OVC038 15/14 A3001 RMK AO2 SLP164
cycle: 9

Station Type Date Time Source
KCBM TAF 2021/03/01 09:03 UTC NOAA

TAF TAF KCBM 010900Z 0109/0215 36009KT 8000 -SHRA SCT009 BKN040 QNH2997INS
BECMG 0119/0120 02009KT 9999 VCSH BKN020 BKN100 QNH3015INS
BECMG 0202/0203 04004KT 8000 -SHRA BKN120 QNH3018INS
BECMG 0208/0209 04012KT 8000 TSRA BKN100CB OVC150 QNH3021INS
BECMG 0214/0215 04012KT 8000 -SHRA BKN030 QNH3023INS TX16/0109Z TN07/0209Z

Example: see airport list